Time;durP1;ratioP1;P1;durP2;ratioP2;P2;SDS_P1;SDS_P2;PMS_P1;PMS_P2;Temp;Humidity;BMP_temperature;BMP_pressure;BME280_temperature;BME280_humidity;BME280_pressure;Samples;Min_cycle;Max_cycle;Signal;HPM_P1;HPM_P2
2021/07/23 00:03:04;;;;;;;3.97;2.45;;;16.50;99.90;;;;;;12586871;28;20044;-44
2021/07/23 00:09:06;;;;;;;5.32;2.70;;;16.50;99.90;;;;;;12586541;28;20077;-40
2021/07/23 00:15:08;;;;;;;8.10;3.15;;;16.50;99.90;;;;;;12583454;28;20056;-40
2021/07/23 00:21:10;;;;;;;4.38;2.85;;;16.30;99.90;;;;;;12595299;28;20090;-41
2021/07/23 00:27:13;;;;;;;3.58;2.58;;;16.30;99.90;;;;;;12590430;28;20655;-42
2021/07/23 00:33:15;;;;;;;6.47;3.03;;;16.30;99.90;;;;;;12586904;28;20405;-40
2021/07/23 00:39:17;;;;;;;6.88;3.50;;;16.10;99.90;;;;;;12591105;28;20082;-40
2021/07/23 00:45:20;;;;;;;6.70;2.90;;;16.00;99.90;;;;;;12588814;28;20090;-43
2021/07/23 00:51:22;;;;;;;7.47;3.00;;;15.90;99.90;;;;;;12589583;28;20052;-41
2021/07/23 00:57:25;;;;;;;6.18;3.20;;;15.70;99.90;;;;;;12591420;28;20101;-40
2021/07/23 01:03:29;;;;;;;5.95;3.13;;;15.60;99.90;;;;;;12586024;28;20052;-40
2021/07/23 01:09:31;;;;;;;5.78;3.28;;;15.60;99.90;;;;;;12586330;28;20044;-41
2021/07/23 01:15:33;;;;;;;4.38;3.03;;;15.40;99.90;;;;;;12587829;28;20056;-41
2021/07/23 01:21:35;;;;;;;8.05;3.38;;;15.50;99.90;;;;;;12593065;28;21092;-40
2021/07/23 01:27:43;;;;;;;4.65;3.38;;;15.40;99.90;;;;;;12594010;28;20541;-43
2021/07/23 01:33:44;;;;;;;9.20;3.85;;;15.30;99.90;;;;;;12601643;28;20055;-41
2021/07/23 01:39:47;;;;;;;6.57;3.78;;;15.20;99.90;;;;;;12594429;28;20552;-40
2021/07/23 01:45:49;;;;;;;6.75;3.72;;;15.20;99.90;;;;;;12593478;28;20482;-41
2021/07/23 01:51:50;;;;;;;6.85;3.78;;;15.20;99.90;;;;;;12596573;28;20117;-41
2021/07/23 01:57:53;;;;;;;6.63;3.40;;;15.10;99.90;;;;;;12596433;28;20537;-41
2021/07/23 02:03:55;;;;;;;5.35;3.70;;;15.10;99.90;;;;;;12595461;28;20048;-42
2021/07/23 02:09:56;;;;;;;8.25;3.70;;;15.10;99.90;;;;;;12593792;28;20048;-40
2021/07/23 02:16:02;;;;;;;6.05;3.70;;;15.00;99.90;;;;;;12597253;28;20105;-41
2021/07/23 02:22:05;;;;;;;5.97;3.80;;;14.90;99.90;;;;;;12591734;28;20048;-40
2021/07/23 02:28:07;;;;;;;5.38;3.60;;;14.80;99.90;;;;;;12595372;28;20044;-40
2021/07/23 02:34:09;;;;;;;7.70;3.83;;;14.80;99.90;;;;;;12593844;28;20243;-46
2021/07/23 02:40:11;;;;;;;6.88;3.72;;;14.80;99.90;;;;;;12597034;28;20483;-40
2021/07/23 02:46:13;;;;;;;6.85;3.75;;;14.70;99.90;;;;;;12594494;28;20077;-40
2021/07/23 02:52:15;;;;;;;6.43;3.90;;;14.70;99.90;;;;;;12593843;28;20571;-40
2021/07/23 02:58:17;;;;;;;6.85;4.30;;;14.60;99.90;;;;;;12591805;28;20462;-39
2021/07/23 03:04:19;;;;;;;6.60;3.95;;;14.60;99.90;;;;;;12593691;28;20044;-40
2021/07/23 03:10:20;;;;;;;7.28;4.45;;;14.10;99.90;;;;;;12594492;28;20182;-41
2021/07/23 03:16:22;;;;;;;6.57;4.15;;;14.30;99.90;;;;;;12593391;28;20094;-40
2021/07/23 03:22:24;;;;;;;5.65;4.00;;;14.30;99.90;;;;;;12594884;28;20079;-40
2021/07/23 03:28:26;;;;;;;6.80;4.60;;;14.40;99.90;;;;;;12593264;28;20531;-41
2021/07/23 03:34:28;;;;;;;5.80;3.97;;;14.40;99.90;;;;;;12598707;28;20093;-40
2021/07/23 03:40:29;;;;;;;8.00;4.47;;;14.30;99.90;;;;;;12587651;28;20101;-43
2021/07/23 03:46:31;;;;;;;8.15;4.35;;;14.30;99.90;;;;;;12594348;28;20545;-39
2021/07/23 03:52:33;;;;;;;12.85;5.07;;;14.20;99.90;;;;;;12588036;28;20108;-40
2021/07/23 03:58:36;;;;;;;12.32;4.53;;;14.00;99.90;;;;;;12590751;28;20089;-40
2021/07/23 04:04:38;;;;;;;7.57;4.65;;;14.00;99.90;;;;;;12586846;28;20041;-41
2021/07/23 04:10:40;;;;;;;7.15;4.40;;;14.10;99.90;;;;;;12586168;28;20051;-40
2021/07/23 04:16:42;;;;;;;12.35;5.00;;;14.20;99.90;;;;;;12595281;28;20770;-41
2021/07/23 04:22:44;;;;;;;6.88;4.70;;;14.10;99.90;;;;;;12591390;28;20044;-41
2021/07/23 04:28:46;;;;;;;9.00;4.55;;;14.20;99.90;;;;;;12587876;28;20044;-40
2021/07/23 04:34:48;;;;;;;7.88;4.30;;;14.00;99.90;;;;;;12588614;28;20097;-40
2021/07/23 04:40:49;;;;;;;11.00;5.75;;;13.90;99.90;;;;;;12588027;28;20044;-40
2021/07/23 04:46:51;;;;;;;8.77;5.07;;;13.90;99.90;;;;;;12590580;28;20100;-40
2021/07/23 04:52:56;;;;;;;6.80;4.40;;;14.20;99.90;;;;;;12597473;28;20048;-41
2021/07/23 04:58:58;;;;;;;10.23;5.13;;;14.20;99.90;;;;;;12592400;28;20117;-40
2021/07/23 05:05:00;;;;;;;7.45;5.18;;;14.20;99.90;;;;;;12601006;28;20036;-40
2021/07/23 05:11:05;;;;;;;9.75;5.90;;;14.50;99.90;;;;;;12603545;28;20048;-42
2021/07/23 05:17:07;;;;;;;6.90;5.75;;;14.60;99.90;;;;;;12602012;28;20096;-40
2021/07/23 05:23:09;;;;;;;10.70;6.43;;;14.70;99.90;;;;;;12595064;28;20090;-40
2021/07/23 05:29:11;;;;;;;11.60;6.63;;;14.80;99.90;;;;;;12597521;28;20370;-40
2021/07/23 05:35:13;;;;;;;9.88;7.07;;;14.80;99.90;;;;;;12593179;28;20056;-40
2021/07/23 05:41:15;;;;;;;11.57;7.20;;;14.90;99.90;;;;;;12591413;28;20125;-40
2021/07/23 05:47:18;;;;;;;10.48;7.32;;;14.90;99.90;;;;;;12600269;28;20071;-40
2021/07/23 05:53:21;;;;;;;12.68;7.32;;;15.10;99.90;;;;;;12595466;28;20048;-40
2021/07/23 05:59:22;;;;;;;13.10;6.63;;;15.00;99.90;;;;;;12602870;28;20052;-40
2021/07/23 06:05:24;;;;;;;9.18;6.82;;;15.10;99.90;;;;;;12591493;28;20462;-40
2021/07/23 06:11:26;;;;;;;9.73;6.00;;;15.20;99.90;;;;;;12597661;28;20067;-39
2021/07/23 06:17:28;;;;;;;9.05;6.13;;;15.30;99.90;;;;;;12599916;28;20441;-40
2021/07/23 06:23:30;;;;;;;9.02;5.65;;;15.30;99.90;;;;;;12571208;28;20101;-40
2021/07/23 06:29:32;;;;;;;10.30;6.00;;;15.40;99.90;;;;;;12544639;28;20049;-44
2021/07/23 06:35:34;;;;;;;10.05;5.93;;;15.50;99.90;;;;;;12546929;28;20480;-40
2021/07/23 06:41:35;;;;;;;11.30;4.93;;;15.60;99.90;;;;;;12538229;28;20056;-41
2021/07/23 06:47:37;;;;;;;9.18;4.95;;;15.60;99.90;;;;;;12540473;28;20053;-40
2021/07/23 06:53:39;;;;;;;13.05;4.93;;;15.70;99.90;;;;;;12573689;28;20448;-40
2021/07/23 06:59:41;;;;;;;7.30;4.45;;;15.70;99.90;;;;;;12595773;28;20064;-40
2021/07/23 07:05:43;;;;;;;6.05;3.90;;;15.70;99.90;;;;;;12593392;28;20036;-41
2021/07/23 07:11:44;;;;;;;9.93;3.75;;;15.80;99.90;;;;;;12590623;28;20041;-43
2021/07/23 07:17:46;;;;;;;10.88;3.72;;;15.90;99.90;;;;;;12593965;28;20142;-40
2021/07/23 07:23:48;;;;;;;7.22;3.58;;;16.30;99.90;;;;;;12592412;28;20048;-41
2021/07/23 07:29:50;;;;;;;6.38;3.60;;;16.30;99.90;;;;;;12595306;28;20090;-42
2021/07/23 07:35:52;;;;;;;7.00;3.45;;;16.50;99.90;;;;;;12586300;28;20060;-41
2021/07/23 07:41:54;;;;;;;10.95;4.25;;;16.50;99.90;;;;;;12588262;28;20135;-41
2021/07/23 07:47:57;;;;;;;9.15;3.88;;;16.70;99.90;;;;;;12592082;28;20693;-40
2021/07/23 07:53:58;;;;;;;10.65;3.90;;;16.70;99.90;;;;;;12588367;28;20044;-41
2021/07/23 08:00:00;;;;;;;10.25;3.67;;;16.80;99.90;;;;;;12591258;28;20100;-43
2021/07/23 08:06:19;;;;;;;4.85;3.45;;;17.00;99.90;;;;;;12589571;28;20048;-41
2021/07/23 08:12:21;;;;;;;6.05;3.50;;;17.10;99.90;;;;;;12586624;28;20121;-40
2021/07/23 08:18:24;;;;;;;6.38;3.72;;;17.10;99.90;;;;;;12588931;28;20059;-40
2021/07/23 08:24:25;;;;;;;6.20;3.30;;;17.20;99.90;;;;;;12587718;28;20105;-41
2021/07/23 08:30:27;;;;;;;7.68;4.15;;;17.30;99.90;;;;;;12592226;28;20047;-40
2021/07/23 08:36:29;;;;;;;8.05;4.30;;;17.50;99.90;;;;;;12598906;28;20052;-41
2021/07/23 08:42:32;;;;;;;8.07;4.75;;;17.80;99.90;;;;;;12600191;28;20102;-40
2021/07/23 08:48:34;;;;;;;8.77;5.43;;;18.00;99.90;;;;;;12597660;28;20122;-41
2021/07/23 08:54:36;;;;;;;7.63;5.15;;;18.20;99.90;;;;;;12593631;28;20507;-40
2021/07/23 09:00:39;;;;;;;8.40;5.03;;;18.20;99.90;;;;;;12618099;28;20044;-41
2021/07/23 09:06:41;;;;;;;8.48;4.97;;;18.10;99.90;;;;;;12649974;28;20039;-40
2021/07/23 09:12:45;;;;;;;7.95;5.25;;;17.90;99.90;;;;;;12646233;28;20744;-40
2021/07/23 09:18:46;;;;;;;;;;;17.90;99.90;;;;;;12647692;28;20531;-43
2021/07/23 09:24:52;;;;;;;7.90;4.75;;;18.20;99.90;;;;;;12644396;28;20325;-44
2021/07/23 09:30:56;;;;;;;7.32;4.60;;;18.30;99.90;;;;;;12646487;28;20044;-43
2021/07/23 09:37:08;;;;;;;;;;;18.20;99.90;;;;;;12646653;28;20048;-43
2021/07/23 09:43:32;;;;;;;5.75;4.07;;;18.60;99.90;;;;;;12650536;28;19927;-41
2021/07/23 09:49:35;;;;;;;7.68;3.90;;;18.90;99.90;;;;;;12647865;28;20048;-40
2021/07/23 09:55:37;;;;;;;8.43;4.03;;;19.40;99.90;;;;;;12649269;28;20055;-41
2021/07/23 10:01:42;;;;;;;5.03;3.50;;;19.90;99.90;;;;;;12647005;28;20052;-40
2021/07/23 10:08:06;;;;;;;8.35;3.92;;;19.70;99.90;;;;;;12645798;28;20063;-40
2021/07/23 10:14:18;;;;;;;4.78;3.50;;;20.00;99.90;;;;;;12639060;28;20054;-41
2021/07/23 10:20:20;;;;;;;5.55;3.55;;;20.00;99.90;;;;;;12646906;28;21069;-40
2021/07/23 10:26:29;;;;;;;6.72;3.47;;;20.00;99.90;;;;;;12643256;27;20052;-41
2021/07/23 10:32:33;;;;;;;5.68;3.28;;;20.70;99.90;;;;;;12639413;28;20084;-41
2021/07/23 10:38:35;;;;;;;4.28;2.90;;;20.90;99.90;;;;;;12642878;28;20302;-40
2021/07/23 10:44:37;;;;;;;6.13;2.97;;;20.70;99.90;;;;;;12643352;28;20103;-40
2021/07/23 10:50:39;;;;;;;4.60;2.65;;;20.90;99.90;;;;;;12646328;28;20460;-41
2021/07/23 10:57:02;;;;;;;5.03;2.88;;;21.30;99.90;;;;;;12641693;28;20147;-40
2021/07/23 11:03:05;;;;;;;5.10;2.83;;;21.70;99.90;;;;;;12637964;28;20130;-41
2021/07/23 11:09:12;;;;;;;4.60;2.60;;;21.80;99.90;;;;;;12645743;28;20755;-41
2021/07/23 11:15:15;;;;;;;6.18;2.55;;;22.00;99.90;;;;;;12643058;28;20294;-42
2021/07/23 11:21:17;;;;;;;4.05;2.70;;;21.90;99.90;;;;;;12640890;28;20044;-41
2021/07/23 11:27:28;;;;;;;5.65;2.60;;;21.70;99.90;;;;;;12641860;28;20101;-40
2021/07/23 11:33:31;;;;;;;4.72;2.70;;;21.80;99.90;;;;;;12646113;28;20108;-41
2021/07/23 11:39:33;;;;;;;7.13;2.67;;;22.30;99.90;;;;;;12639639;28;20127;-41
2021/07/23 11:45:36;;;;;;;6.07;2.58;;;21.80;99.90;;;;;;12639680;28;20139;-41
2021/07/23 11:51:40;;;;;;;3.38;2.42;;;22.80;99.90;;;;;;12641215;28;20083;-48
2021/07/23 11:57:44;;;;;;;6.78;2.50;;;23.10;99.90;;;;;;12638956;28;20096;-41
2021/07/23 12:03:55;;;;;;;5.07;3.00;;;23.00;99.90;;;;;;12642913;28;20552;-42
2021/07/23 12:09:57;;;;;;;5.28;3.65;;;23.20;99.90;;;;;;12636336;28;20058;-41
2021/07/23 12:15:59;;;;;;;5.37;2.70;;;23.10;99.90;;;;;;12642971;28;20056;-41
2021/07/23 12:22:10;;;;;;;4.35;2.50;;;23.00;99.90;;;;;;12640893;28;20044;-43
2021/07/23 12:28:14;;;;;;;4.45;2.20;;;23.30;99.90;;;;;;12644655;28;20048;-43
2021/07/23 12:34:20;;;;;;;5.10;2.83;;;23.30;99.90;;;;;;12637959;28;20142;-41
2021/07/23 12:40:45;;;;;;;5.15;3.00;;;23.50;99.90;;;;;;12642353;28;20139;-42
2021/07/23 12:46:49;;;;;;;5.53;2.58;;;23.80;99.90;;;;;;12641172;28;20052;-41
2021/07/23 12:52:52;;;;;;;4.88;2.50;;;24.20;99.90;;;;;;12623500;28;20491;-41
2021/07/23 12:58:56;;;;;;;4.30;2.65;;;24.20;99.90;;;;;;12642221;28;20495;-41
2021/07/23 13:04:59;;;;;;;5.03;2.60;;;24.30;99.90;;;;;;12644883;28;20096;-41
2021/07/23 13:11:07;;;;;;;;;;;24.20;99.90;;;;;;12641082;28;20404;-41
2021/07/23 13:17:09;;;;;;;3.30;2.40;;;24.10;99.90;;;;;;12644393;28;19924;-41
2021/07/23 13:23:11;;;;;;;3.67;2.10;;;23.80;99.90;;;;;;12650602;28;20052;-41
2021/07/23 13:29:13;;;;;;;5.85;2.42;;;23.20;99.90;;;;;;12644731;28;20536;-41
2021/07/23 13:35:15;;;;;;;6.15;2.28;;;23.90;99.90;;;;;;12645519;28;20044;-42
2021/07/23 13:41:19;;;;;;;4.03;2.58;;;23.90;99.90;;;;;;12647500;28;20048;-42
2021/07/23 13:47:22;;;;;;;5.05;2.60;;;23.50;99.90;;;;;;12648369;28;20101;-40
2021/07/23 13:53:24;;;;;;;5.82;3.10;;;24.20;99.90;;;;;;12640541;28;20048;-41
2021/07/23 13:59:26;;;;;;;4.47;2.60;;;23.70;99.90;;;;;;12652355;28;20100;-42
2021/07/23 14:05:28;;;;;;;5.05;2.80;;;24.00;99.90;;;;;;12643405;28;20044;-41
2021/07/23 14:11:29;;;;;;;4.78;2.60;;;24.10;99.90;;;;;;12650181;28;20084;-41
2021/07/23 14:17:31;;;;;;;4.47;2.55;;;23.80;99.90;;;;;;12643334;28;20468;-41
2021/07/23 14:23:33;;;;;;;5.68;3.10;;;24.10;99.90;;;;;;12644171;28;20384;-41
2021/07/23 14:29:35;;;;;;;13.40;3.33;;;23.60;99.90;;;;;;12642022;28;20044;-42
2021/07/23 14:35:38;;;;;;;5.45;2.70;;;23.40;99.90;;;;;;12646279;28;20813;-42
2021/07/23 14:41:40;;;;;;;7.50;3.37;;;23.60;99.90;;;;;;12648664;28;20433;-42
2021/07/23 14:47:41;;;;;;;6.07;2.83;;;23.90;99.90;;;;;;12646203;28;20092;-40
2021/07/23 14:53:43;;;;;;;5.72;3.10;;;23.40;99.90;;;;;;12644399;28;20099;-41
2021/07/23 14:59:45;;;;;;;4.38;2.88;;;24.00;99.90;;;;;;12647214;28;20047;-42
2021/07/23 15:05:47;;;;;;;6.57;3.30;;;24.20;99.90;;;;;;12646109;28;20047;-41
2021/07/23 15:11:49;;;;;;;5.72;3.10;;;24.20;99.90;;;;;;12641218;28;20040;-41
2021/07/23 15:17:57;;;;;;;5.95;3.75;;;24.10;99.90;;;;;;12638250;28;20048;-41
2021/07/23 15:24:00;;;;;;;5.70;3.30;;;23.80;99.90;;;;;;12641728;28;20043;-41
2021/07/23 15:30:03;;;;;;;5.40;3.58;;;24.00;99.90;;;;;;12636115;28;20068;-40
2021/07/23 15:36:05;;;;;;;6.68;3.42;;;23.70;99.90;;;;;;12642285;28;20078;-41
2021/07/23 15:42:09;;;;;;;6.45;3.35;;;23.20;99.90;;;;;;12638665;28;20073;-40
2021/07/23 15:48:11;;;;;;;5.45;3.20;;;22.90;99.90;;;;;;12641431;28;20092;-42
2021/07/23 15:54:12;;;;;;;5.97;3.63;;;23.50;99.90;;;;;;12643704;28;20469;-42
2021/07/23 16:00:15;;;;;;;8.93;3.53;;;22.80;99.90;;;;;;12642048;28;20170;-41
2021/07/23 16:06:18;;;;;;;5.35;3.50;;;23.30;99.90;;;;;;12642591;28;20052;-41
2021/07/23 16:12:21;;;;;;;6.03;3.70;;;23.20;99.90;;;;;;12639857;28;20054;-42
2021/07/23 16:18:22;;;;;;;5.07;3.70;;;23.20;99.90;;;;;;12641987;28;20058;-42
2021/07/23 16:24:24;;;;;;;7.65;4.07;;;23.50;99.90;;;;;;12645534;28;20040;-41
2021/07/23 16:30:26;;;;;;;7.22;3.40;;;23.40;99.90;;;;;;12639449;28;20060;-40
2021/07/23 16:36:28;;;;;;;7.38;3.70;;;23.20;99.90;;;;;;12639329;28;20056;-42
2021/07/23 16:42:30;;;;;;;8.10;3.60;;;23.00;99.90;;;;;;12633927;28;20101;-41
2021/07/23 16:48:32;;;;;;;5.65;3.22;;;23.40;99.90;;;;;;12640255;28;20082;-41
2021/07/23 16:54:38;;;;;;;5.88;3.47;;;23.50;99.90;;;;;;12642806;28;20051;-41
2021/07/23 17:00:40;;;;;;;9.10;4.65;;;24.00;99.90;;;;;;12644919;28;20040;-42
2021/07/23 17:06:42;;;;;;;5.88;3.78;;;23.70;99.90;;;;;;12649011;28;20551;-41
2021/07/23 17:12:44;;;;;;;6.50;4.00;;;24.00;99.90;;;;;;12652236;28;20936;-40
2021/07/23 17:18:46;;;;;;;5.55;3.85;;;23.60;99.90;;;;;;12643189;28;20051;-42
2021/07/23 17:24:48;;;;;;;13.15;4.70;;;23.60;99.90;;;;;;12645096;28;20040;-41
2021/07/23 17:30:50;;;;;;;5.00;3.63;;;23.10;99.90;;;;;;12647518;28;20036;-41
2021/07/23 17:36:51;;;;;;;9.32;3.78;;;23.30;99.90;;;;;;12651096;28;20108;-41
2021/07/23 17:42:55;;;;;;;5.63;3.55;;;23.20;99.90;;;;;;12629837;28;20044;-41
2021/07/23 17:48:57;;;;;;;;;;;22.90;99.90;;;;;;12644179;28;20044;-42
2021/07/23 17:54:58;;;;;;;5.68;3.80;;;23.10;99.90;;;;;;12643195;28;19931;-42
2021/07/23 18:01:00;;;;;;;6.68;4.40;;;23.50;99.90;;;;;;12640920;28;20085;-43
2021/07/23 18:07:05;;;;;;;6.55;3.97;;;23.70;99.90;;;;;;12642924;28;20403;-42
2021/07/23 18:13:06;;;;;;;6.30;4.05;;;23.30;99.90;;;;;;12640865;28;20920;-41
2021/07/23 18:19:08;;;;;;;7.93;4.45;;;22.80;99.90;;;;;;12646622;28;20384;-40
2021/07/23 18:25:11;;;;;;;7.30;4.30;;;21.50;99.90;;;;;;12642683;28;20059;-40
2021/07/23 18:31:13;;;;;;;7.03;5.05;;;20.60;99.90;;;;;;12647382;28;20048;-41
2021/07/23 18:37:19;;;;;;;6.95;4.95;;;20.20;99.90;;;;;;12643693;28;20484;-40
2021/07/23 18:43:22;;;;;;;5.65;4.45;;;20.00;99.90;;;;;;12636759;28;20039;-41
2021/07/23 18:49:23;;;;;;;7.25;4.70;;;20.10;99.90;;;;;;12635474;28;20051;-41
2021/07/23 18:55:25;;;;;;;9.80;4.60;;;20.10;99.90;;;;;;12634752;28;20129;-41
2021/07/23 19:01:27;;;;;;;7.05;4.95;;;19.90;99.90;;;;;;12637783;28;20128;-41
2021/07/23 19:07:30;;;;;;;22.37;6.20;;;19.70;99.90;;;;;;12636439;28;20439;-40
2021/07/23 19:13:34;;;;;;;10.48;6.47;;;19.20;99.90;;;;;;12637761;28;20048;-42
2021/07/23 19:19:36;;;;;;;13.63;6.18;;;19.10;99.90;;;;;;12635665;28;20056;-40
2021/07/23 19:25:38;;;;;;;9.10;5.80;;;19.10;99.90;;;;;;12634745;28;20048;-41
2021/07/23 19:31:40;;;;;;;9.90;5.90;;;19.10;99.90;;;;;;12630242;28;20159;-41
2021/07/23 19:37:42;;;;;;;8.82;5.70;;;19.30;99.90;;;;;;12636655;28;20052;-40
2021/07/23 19:43:44;;;;;;;13.43;5.60;;;19.40;99.90;;;;;;12634842;28;20394;-41
2021/07/23 19:49:45;;;;;;;11.00;5.88;;;19.20;99.90;;;;;;12630651;28;20122;-40
2021/07/23 19:55:51;;;;;;;11.23;5.38;;;18.90;99.90;;;;;;12634850;28;20511;-40
2021/07/23 20:01:53;;;;;;;9.18;5.80;;;18.70;99.90;;;;;;12634579;28;20125;-40
2021/07/23 20:07:55;;;;;;;7.72;5.35;;;18.30;99.90;;;;;;12632775;28;20044;-42
2021/07/23 20:13:57;;;;;;;7.53;4.97;;;18.20;99.90;;;;;;12636292;28;20096;-40
2021/07/23 20:20:01;;;;;;;10.32;5.60;;;18.30;99.90;;;;;;12636478;28;20052;-41
2021/07/23 20:26:03;;;;;;;;;;;18.20;99.90;;;;;;12630689;28;20044;-41
2021/07/23 20:32:05;;;;;;;9.13;5.85;;;18.10;99.90;;;;;;12640776;28;19920;-41
2021/07/23 20:38:07;;;;;;;8.05;5.70;;;18.30;99.90;;;;;;12644062;28;20055;-40
2021/07/23 20:44:08;;;;;;;8.50;6.05;;;18.10;99.90;;;;;;12644086;28;20048;-40
2021/07/23 20:50:12;;;;;;;10.20;5.63;;;18.30;99.90;;;;;;12639332;28;20092;-40
2021/07/23 20:56:16;;;;;;;9.13;5.20;;;18.20;99.90;;;;;;12645031;28;20052;-41
2021/07/23 21:02:17;;;;;;;9.63;5.50;;;18.10;99.90;;;;;;12641014;28;20120;-39
2021/07/23 21:08:19;;;;;;;13.55;5.80;;;17.80;99.90;;;;;;12641603;28;20043;-40
2021/07/23 21:14:21;;;;;;;9.07;6.15;;;17.70;99.90;;;;;;12640918;28;20596;-40
2021/07/23 21:20:23;;;;;;;8.15;5.30;;;17.70;99.90;;;;;;12644775;28;20123;-41
2021/07/23 21:26:25;;;;;;;8.40;5.10;;;17.60;99.90;;;;;;12637990;28;20044;-40
2021/07/23 21:32:27;;;;;;;8.25;5.55;;;17.40;99.90;;;;;;12639429;27;20174;-40
2021/07/23 21:38:29;;;;;;;8.23;5.07;;;17.40;99.90;;;;;;12638588;28;20051;-42
2021/07/23 21:44:34;;;;;;;6.80;5.32;;;17.40;99.90;;;;;;12645584;28;20040;-40
2021/07/23 21:50:36;;;;;;;8.15;5.05;;;17.60;99.90;;;;;;12643008;28;20695;-40
2021/07/23 21:56:38;;;;;;;8.52;5.20;;;17.70;99.90;;;;;;12646518;28;20687;-41
2021/07/23 22:02:39;;;;;;;8.48;5.20;;;17.40;99.90;;;;;;12640262;28;20430;-41
2021/07/23 22:08:42;;;;;;;8.15;5.32;;;17.50;99.90;;;;;;12623587;27;20044;-42
2021/07/23 22:14:43;;;;;;;9.00;5.32;;;17.30;99.90;;;;;;12633910;28;20047;-40
2021/07/23 22:20:45;;;;;;;7.18;5.25;;;17.30;99.90;;;;;;12643115;28;20092;-40
2021/07/23 22:26:47;;;;;;;8.13;4.88;;;17.30;99.90;;;;;;12628627;28;20048;-41
2021/07/23 22:32:49;;;;;;;8.90;4.97;;;17.30;99.90;;;;;;12632286;28;20101;-42
2021/07/23 22:38:51;;;;;;;8.82;5.40;;;17.10;99.90;;;;;;12640961;28;20938;-41
2021/07/23 22:44:52;;;;;;;9.85;4.85;;;17.00;99.90;;;;;;12619040;28;20344;-40
2021/07/23 22:50:54;;;;;;;8.68;4.78;;;17.00;99.90;;;;;;12638310;28;20092;-40
2021/07/23 22:56:56;;;;;;;8.57;5.25;;;17.00;99.90;;;;;;12634991;28;20064;-43
2021/07/23 23:02:58;;;;;;;6.25;4.63;;;16.90;99.90;;;;;;12624827;28;20100;-41
2021/07/23 23:09:00;;;;;;;6.65;5.13;;;16.90;99.90;;;;;;12636644;28;20074;-40
2021/07/23 23:15:02;;;;;;;8.05;4.85;;;17.00;99.90;;;;;;12637737;28;20131;-41
2021/07/23 23:21:05;;;;;;;5.65;4.50;;;17.10;99.90;;;;;;12636442;28;20095;-41
2021/07/23 23:27:07;;;;;;;6.13;4.60;;;17.10;99.90;;;;;;12634763;28;20422;-41
2021/07/23 23:33:09;;;;;;;7.65;4.90;;;16.90;99.90;;;;;;12631943;28;20047;-41
2021/07/23 23:39:11;;;;;;;6.18;4.68;;;17.00;99.90;;;;;;12633527;28;20055;-40
2021/07/23 23:45:13;;;;;;;7.88;5.15;;;16.80;99.90;;;;;;12635991;28;20052;-41
2021/07/23 23:51:17;;;;;;;7.63;5.10;;;16.60;99.90;;;;;;12628526;28;20051;-39
2021/07/23 23:57:18;;;;;;;6.57;4.65;;;16.40;99.90;;;;;;12627721;28;20056;-39
